Decoded Metar for UWLW (ULYANOVSK in RUSSIA) (IATA:N/A) | Meteo·Mobile Aviation Weather
aviador You're here:

UWLW Decoded Metar

ULYANOVSK in RUSSIA
Report Time2019-07-22 16:00:00
UTC Time2019-07-22 16:34:02
Flight Rules vfr VFR
Wind300° at 10 kt
W.Decomp.*RWY 20: 0.2 kt HW 10.0 kt RCW
Visibility8000 m
Phenomena:N/A
Clouds:Scattered CB 040 Hf
Expected CloudBase > 2,800 ft AGL from Temp-Dew spread
CeilingNone
Temp20°C (ISA +5)
Dew Point13°C (64% RH)
AAT17.3°C
QNH1012 hPa
Density Alt1,086 ft
Elevation217 ft
Report Wrong Elevation
Raw Report
UWLW 221600Z 30005MPS 8000 SCT040CB 20/13 Q1012 R20/CLRD60 NOSIG
RMK QFE753=

Extra information for UWLW:More info

Metar Taf Metar & Taf Last 4 Metars F.Rules Stats Wind Profile Meteogram Temp Stats Airport Information Weather charts Add Link Nearby VenuesMetar ALERT Operation Metar Decoded Social comments